Time;durP1;ratioP1;P1;durP2;ratioP2;P2;SDS_P1;SDS_P2;PMS_P1;PMS_P2;Temp;Humidity;BMP_temperature;BMP_pressure;BME280_temperature;BME280_humidity;BME280_pressure;Samples;Min_cycle;Max_cycle;Signal;HPM_P1;HPM_P2
2023/12/14 00:00:29;;;;;;;8.50;7.15;;;;;;;9.02;96.93;99091.31;10290682;28;20043;-68
2023/12/14 00:05:31;;;;;;;9.70;8.25;;;;;;;9.02;97.32;99087.81;10295107;28;20054;-69
2023/12/14 00:10:32;;;;;;;10.23;8.88;;;;;;;9.05;97.13;99090.16;10292002;28;20625;-67
2023/12/14 00:15:34;;;;;;;9.18;8.38;;;;;;;9.02;97.04;99101.94;10276680;28;20054;-68
2023/12/14 00:20:35;;;;;;;9.82;8.38;;;;;;;8.98;97.21;99112.97;10295004;28;20140;-67
2023/12/14 00:25:36;;;;;;;12.05;8.25;;;;;;;8.98;97.33;99112.97;10296880;28;20065;-67
2023/12/14 00:30:38;;;;;;;9.43;8.52;;;;;;;8.82;96.86;99106.41;10294087;28;20582;-67
2023/12/14 00:35:40;;;;;;;10.40;9.35;;;;;;;8.96;97.05;99130.84;10298701;28;20062;-67
2023/12/14 00:40:44;;;;;;;10.77;9.17;;;;;;;8.97;96.69;99140.50;10299990;28;20116;-67
2023/12/14 00:45:47;;;;;;;10.07;8.75;;;;;;;8.93;96.67;99141.75;10293956;28;20555;-68
2023/12/14 00:50:49;;;;;;;10.93;9.30;;;;;;;8.88;97.51;99151.94;10296373;28;20056;-67
2023/12/14 00:55:50;;;;;;;9.70;8.80;;;;;;;9.02;97.17;99172.75;10303782;28;20524;-69
2023/12/14 01:00:54;;;;;;;11.02;8.70;;;;;;;9.00;97.26;99183.50;10299620;28;20151;-67
2023/12/14 01:05:55;;;;;;;12.47;9.80;;;;;;;8.98;97.33;99196.09;10285565;28;20110;-68
2023/12/14 01:10:57;;;;;;;15.38;12.80;;;;;;;8.89;99.05;99201.38;10249873;28;20113;-67
2023/12/14 01:15:59;;;;;;;14.98;12.07;;;;;;;8.87;99.01;99209.47;10294477;28;20068;-68
2023/12/14 01:21:00;;;;;;;18.00;12.20;;;;;;;8.91;98.96;99220.66;10306057;28;20104;-67
2023/12/14 01:26:03;;;;;;;16.20;12.52;;;;;;;8.89;99.23;99227.91;10299630;28;20558;-67
2023/12/14 01:31:06;;;;;;;16.63;13.32;;;;;;;8.63;100.00;99212.50;10309452;28;20149;-68
2023/12/14 01:36:10;;;;;;;17.95;13.27;;;;;;;8.89;100.00;99251.81;10273864;28;20051;-68
2023/12/14 01:41:12;;;;;;;17.35;13.82;;;;;;;8.89;100.00;99259.75;10292463;28;20054;-66
2023/12/14 01:46:16;;;;;;;17.65;12.32;;;;;;;9.00;99.84;99267.63;10290250;28;20204;-67
2023/12/14 01:51:17;;;;;;;16.08;12.00;;;;;;;9.01;99.06;99280.75;10289243;28;20058;-63
2023/12/14 01:56:19;;;;;;;14.45;11.93;;;;;;;9.00;98.33;99288.84;10281207;28;20061;-63
2023/12/14 02:01:26;;;;;;;15.27;11.68;;;;;;;8.95;98.68;99291.91;10295002;28;20137;-64
2023/12/14 02:06:27;;;;;;;16.15;11.15;;;;;;;8.80;99.46;99283.50;10298180;28;20058;-65
2023/12/14 02:11:29;;;;;;;15.15;12.02;;;;;;;8.89;99.73;99289.81;10305153;28;20054;-63
2023/12/14 02:16:31;;;;;;;16.25;11.95;;;;;;;8.98;99.06;99306.75;10296134;28;20718;-64
2023/12/14 02:21:33;;;;;;;19.75;12.13;;;;;;;8.98;98.60;99307.56;10294713;28;20046;-63
2023/12/14 02:26:35;;;;;;;16.38;12.40;;;;;;;8.92;98.25;99317.91;10304456;28;20112;-64
2023/12/14 02:31:36;;;;;;;17.90;12.82;;;;;;;8.91;98.76;99321.53;10300181;28;20151;-64
2023/12/14 02:36:38;;;;;;;14.43;10.07;;;;;;;8.99;99.31;99329.63;10299073;28;20181;-62
2023/12/14 02:41:39;;;;;;;11.88;8.60;;;;;;;9.07;99.38;99332.47;10301413;28;20766;-64
2023/12/14 02:46:41;;;;;;;12.98;9.05;;;;;;;9.08;98.43;99331.47;10294361;28;20054;-64
2023/12/14 02:51:42;;;;;;;14.95;8.80;;;;;;;9.10;98.17;99332.19;10277836;28;20061;-63
2023/12/14 02:56:44;;;;;;;14.60;10.35;;;;;;;8.98;98.93;99338.59;10294359;28;20054;-65
2023/12/14 03:01:45;;;;;;;15.82;10.27;;;;;;;8.93;99.93;99332.84;10298323;28;20103;-64
2023/12/14 03:06:47;;;;;;;16.10;10.27;;;;;;;9.03;98.53;99341.66;10303081;28;20053;-64
2023/12/14 03:11:49;;;;;;;14.02;10.23;;;;;;;9.00;98.76;99339.28;10310783;28;20066;-64
2023/12/14 03:16:50;;;;;;;16.45;11.38;;;;;;;9.03;97.97;99357.59;10287904;28;20057;-66
2023/12/14 03:21:52;;;;;;;14.50;11.20;;;;;;;8.98;97.50;99362.47;10276576;28;20058;-64
2023/12/14 03:26:53;;;;;;;12.75;10.13;;;;;;;8.96;98.08;99375.03;10290076;28;20101;-66
2023/12/14 03:31:55;;;;;;;14.65;10.30;;;;;;;8.88;98.38;99380.19;10291934;28;20133;-65
2023/12/14 03:36:57;;;;;;;9.98;8.75;;;;;;;8.69;98.69;99371.16;10298832;28;20768;-65
2023/12/14 03:41:58;;;;;;;12.48;10.38;;;;;;;8.71;98.56;99378.97;10293596;28;20054;-65
2023/12/14 03:47:01;;;;;;;12.70;10.35;;;;;;;8.72;98.37;99389.50;10297721;28;20582;-64
2023/12/14 03:52:03;;;;;;;12.95;10.73;;;;;;;8.74;97.88;99395.50;10302132;28;20061;-64
2023/12/14 03:57:05;;;;;;;14.95;11.60;;;;;;;8.75;97.43;99415.75;10303403;28;20432;-64
2023/12/14 04:02:07;;;;;;;16.10;10.73;;;;;;;8.65;97.92;99420.16;10290522;28;20057;-65
2023/12/14 04:07:08;;;;;;;14.73;11.43;;;;;;;8.62;98.53;99423.09;10309063;28;20165;-64
2023/12/14 04:12:10;;;;;;;13.93;10.23;;;;;;;8.56;99.04;99436.88;10294004;28;20165;-65
2023/12/14 04:17:12;;;;;;;12.05;9.50;;;;;;;8.61;97.87;99458.53;10301860;28;20754;-62
2023/12/14 04:22:14;;;;;;;12.05;9.85;;;;;;;8.58;98.17;99462.28;10284688;28;20056;-62
2023/12/14 04:27:15;;;;;;;13.40;10.18;;;;;;;8.55;97.41;99457.25;10284932;28;20050;-65
2023/12/14 04:32:17;;;;;;;11.90;10.55;;;;;;;8.67;98.93;99477.41;10296518;28;20054;-64
2023/12/14 04:37:18;;;;;;;14.30;11.43;;;;;;;8.62;97.81;99482.28;10292881;28;20068;-62
2023/12/14 04:42:20;;;;;;;13.10;11.80;;;;;;;8.44;98.24;99474.06;10293723;28;21051;-62
2023/12/14 04:47:23;;;;;;;14.32;11.20;;;;;;;8.38;98.74;99479.03;10288609;28;20117;-62
2023/12/14 04:52:25;;;;;;;15.10;11.27;;;;;;;8.35;98.15;99511.94;10292709;28;20104;-64
2023/12/14 04:57:26;;;;;;;13.68;10.43;;;;;;;8.38;99.36;99511.69;10295273;28;20094;-64
2023/12/14 05:02:28;;;;;;;14.20;11.75;;;;;;;8.38;98.84;99521.47;10293653;28;20085;-62
2023/12/14 05:07:30;;;;;;;18.17;11.63;;;;;;;8.36;99.41;99533.97;10297734;28;20051;-63
2023/12/14 05:12:33;;;;;;;15.23;11.77;;;;;;;8.42;99.82;99534.34;10297778;28;24816;-64
2023/12/14 05:17:36;;;;;;;15.07;11.50;;;;;;;8.41;99.25;99548.56;10275346;28;20706;-65
2023/12/14 05:22:38;;;;;;;12.03;10.53;;;;;;;8.33;99.48;99556.28;10270352;28;20181;-65
2023/12/14 05:27:41;;;;;;;11.32;10.23;;;;;;;8.38;98.84;99566.53;10302373;28;20452;-65
2023/12/14 05:32:43;;;;;;;12.63;10.65;;;;;;;8.43;98.79;99569.63;10273445;28;20050;-64
2023/12/14 05:37:45;;;;;;;11.57;9.32;;;;;;;8.46;98.14;99578.22;10290643;28;20220;-66
2023/12/14 05:42:47;;;;;;;10.35;9.32;;;;;;;8.38;98.42;99588.59;10287574;28;20431;-67
2023/12/14 05:47:49;;;;;;;10.90;9.00;;;;;;;8.25;98.44;99598.50;10285380;28;20637;-64
2023/12/14 05:52:50;;;;;;;25.88;23.40;;;;;;;8.29;98.73;99613.22;10290586;28;20103;-65
2023/12/14 05:57:54;;;;;;;16.42;14.80;;;;;;;8.24;98.98;99610.06;10272422;28;20070;-66
2023/12/14 06:02:56;;;;;;;28.33;25.85;;;;;;;8.24;98.52;99621.53;10283236;28;20555;-65
2023/12/14 06:07:58;;;;;;;11.90;10.65;;;;;;;8.14;98.39;99629.38;10303106;28;20437;-65
2023/12/14 06:13:01;;;;;;;13.57;11.27;;;;;;;8.16;98.90;99649.63;10281833;28;20530;-65
2023/12/14 06:18:04;;;;;;;10.70;9.60;;;;;;;8.24;99.16;99663.09;10290852;28;20169;-64
2023/12/14 06:23:08;;;;;;;11.27;9.00;;;;;;;8.21;98.41;99658.03;10275896;28;20061;-63
2023/12/14 06:28:10;;;;;;;12.35;9.73;;;;;;;8.27;98.47;99673.47;10267763;28;20053;-65
2023/12/14 06:33:18;;;;;;;15.20;8.93;;;;;;;8.32;98.86;99687.22;10291671;28;20052;-64
2023/12/14 06:38:20;;;;;;;10.18;7.85;;;;;;;8.26;98.58;99693.00;10273749;28;20196;-64
2023/12/14 06:43:23;;;;;;;9.48;7.47;;;;;;;8.33;98.78;99699.47;10306153;28;20112;-65
2023/12/14 06:48:25;;;;;;;11.15;8.73;;;;;;;8.32;97.48;99708.44;10282401;28;21352;-64
2023/12/14 06:53:29;;;;;;;8.95;7.80;;;;;;;8.31;98.59;99717.34;10286920;28;20049;-65
2023/12/14 06:58:33;;;;;;;10.57;7.53;;;;;;;8.37;98.70;99714.19;10296503;28;20073;-64
2023/12/14 07:03:35;;;;;;;9.55;8.00;;;;;;;8.37;98.75;99716.00;10295045;28;20065;-64
2023/12/14 07:08:37;;;;;;;12.05;10.77;;;;;;;8.46;98.06;99729.41;10304229;28;20046;-64
2023/12/14 07:13:39;;;;;;;12.32;9.95;;;;;;;8.39;98.38;99733.50;10304958;28;20128;-63
2023/12/14 07:18:41;;;;;;;10.82;9.70;;;;;;;8.51;98.00;99749.41;10284715;28;20197;-65
2023/12/14 07:23:43;;;;;;;12.18;9.98;;;;;;;8.40;98.06;99737.81;10292570;28;20062;-65
2023/12/14 07:28:44;;;;;;;10.85;9.75;;;;;;;8.39;98.17;99762.66;10287595;28;20105;-63
2023/12/14 07:33:46;;;;;;;10.25;9.07;;;;;;;8.34;98.24;99775.44;10295013;28;20069;-63
2023/12/14 07:38:48;;;;;;;18.73;9.85;;;;;;;8.34;98.89;99786.03;10292524;28;20513;-64
2023/12/14 07:43:51;;;;;;;9.88;8.18;;;;;;;8.21;98.02;99795.91;10293252;28;20055;-63
2023/12/14 07:48:52;;;;;;;12.38;7.40;;;;;;;8.19;97.83;99797.84;10294238;28;20744;-61
2023/12/14 07:53:54;;;;;;;10.95;7.97;;;;;;;8.30;98.75;99816.41;10272862;28;20050;-62
2023/12/14 07:58:55;;;;;;;8.80;7.68;;;;;;;8.40;98.64;99821.84;10295971;28;20054;-61
2023/12/14 08:03:57;;;;;;;11.55;8.45;;;;;;;8.48;98.05;99833.59;10292688;28;20057;-63
2023/12/14 08:08:58;;;;;;;9.18;7.78;;;;;;;8.51;98.33;99834.28;10309216;28;20089;-64
2023/12/14 08:14:00;;;;;;;12.50;8.27;;;;;;;8.49;98.03;99843.22;10288284;28;20053;-63
2023/12/14 08:19:02;;;;;;;8.80;7.90;;;;;;;8.55;98.73;99846.38;10313430;28;20202;-62
2023/12/14 08:24:04;;;;;;;10.68;7.63;;;;;;;8.62;98.57;99860.84;10293747;28;20065;-63
2023/12/14 08:29:05;;;;;;;10.40;7.50;;;;;;;8.61;99.06;99852.00;10299133;28;20054;-63
2023/12/14 08:34:07;;;;;;;8.07;7.28;;;;;;;8.78;99.42;99873.72;10289436;28;20065;-63
2023/12/14 08:39:11;;;;;;;11.10;8.68;;;;;;;8.87;99.27;99888.09;10293500;28;20054;-63
2023/12/14 08:44:13;;;;;;;10.27;7.85;;;;;;;8.95;99.51;99901.59;10295084;28;20420;-64
2023/12/14 08:49:15;;;;;;;11.43;8.68;;;;;;;8.97;98.96;99910.28;10292856;28;20045;-62
2023/12/14 08:54:18;;;;;;;8.90;8.00;;;;;;;8.97;98.94;99910.28;10289324;28;20074;-62
2023/12/14 08:59:20;;;;;;;9.90;8.25;;;;;;;8.94;99.41;99916.66;10294479;28;20058;-65
2023/12/14 09:04:22;;;;;;;12.70;9.65;;;;;;;9.08;99.74;99943.94;10296638;28;20128;-62
2023/12/14 09:09:24;;;;;;;10.82;9.70;;;;;;;9.07;99.64;99956.38;10292368;28;20910;-64
2023/12/14 09:14:26;;;;;;;13.05;9.88;;;;;;;9.19;99.92;99979.31;10289291;28;20772;-63
2023/12/14 09:19:31;;;;;;;11.65;10.18;;;;;;;9.20;99.83;99990.75;10291635;28;20072;-64
2023/12/14 09:24:32;;;;;;;13.35;10.68;;;;;;;9.09;99.94;99983.66;10293903;28;20160;-63
2023/12/14 09:29:35;;;;;;;12.65;10.52;;;;;;;9.27;100.00;100007.06;10289720;28;20468;-62
2023/12/14 09:34:37;;;;;;;13.00;10.00;;;;;;;9.30;100.00;100015.63;10273173;28;20058;-64
2023/12/14 09:39:39;;;;;;;12.57;10.02;;;;;;;9.29;100.00;100026.38;10290348;28;20054;-64
2023/12/14 09:44:42;;;;;;;15.00;11.50;;;;;;;9.35;100.00;100033.88;10299991;28;20963;-66
2023/12/14 09:49:49;;;;;;;14.10;10.25;;;;;;;9.37;100.00;100051.38;10291335;28;20058;-64
2023/12/14 09:54:50;;;;;;;13.77;11.70;;;;;;;9.37;100.00;100054.03;10301630;28;20046;-65
2023/12/14 09:59:55;;;;;;;9.73;8.75;;;;;;;9.38;100.00;100057.53;10296603;28;20099;-64
2023/12/14 10:04:57;;;;;;;11.35;9.43;;;;;;;9.35;100.00;100068.41;10294906;28;20057;-63
2023/12/14 10:10:20;;;;;;;10.40;9.30;;;;;;;9.41;100.00;100085.69;10297449;28;20946;-65
2023/12/14 10:15:24;;;;;;;10.32;9.00;;;;;;;9.45;100.00;100085.31;10296244;28;20092;-64
2023/12/14 10:20:26;;;;;;;12.23;9.77;;;;;;;9.15;100.00;100078.75;10298276;28;20055;-65
2023/12/14 10:25:29;;;;;;;10.35;8.73;;;;;;;9.14;100.00;100085.06;10304465;28;20050;-65
2023/12/14 10:30:31;;;;;;;10.50;8.88;;;;;;;9.28;100.00;100099.09;10299897;28;20046;-64
2023/12/14 10:35:37;;;;;;;9.23;8.27;;;;;;;9.31;100.00;100101.50;10296396;28;20042;-64
2023/12/14 10:40:43;;;;;;;8.82;7.93;;;;;;;9.35;100.00;100102.94;10298586;28;20156;-64
2023/12/14 10:45:47;;;;;;;8.43;7.00;;;;;;;9.40;100.00;100108.75;10300444;28;20074;-64
2023/12/14 10:50:52;;;;;;;8.35;6.60;;;;;;;9.50;100.00;100114.19;10302737;28;20077;-64
2023/12/14 10:55:57;;;;;;;6.75;6.03;;;;;;;9.41;100.00;100126.34;10299187;28;20054;-62
2023/12/14 11:01:01;;;;;;;5.72;4.88;;;;;;;9.43;100.00;100121.78;10301890;28;20057;-65
2023/12/14 11:06:04;;;;;;;;;;;;;;;9.38;100.00;100137.22;10284385;28;20411;-66
2023/12/14 11:11:20;;;;;;;3.75;2.72;;;;;;;9.47;99.76;100138.31;10295202;28;19988;-64
2023/12/14 11:16:28;;;;;;;2.72;2.15;;;;;;;9.58;98.09;100158.75;10287260;28;20056;-64
2023/12/14 11:21:29;;;;;;;3.15;2.40;;;;;;;9.64;98.61;100158.28;10292045;28;20149;-64
2023/12/14 11:26:31;;;;;;;2.55;1.95;;;;;;;9.71;97.65;100162.13;10303100;28;20166;-63
2023/12/14 11:31:33;;;;;;;3.28;2.42;;;;;;;9.80;96.85;100171.22;10299752;28;20547;-64
2023/12/14 11:36:38;;;;;;;2.20;1.98;;;;;;;9.82;94.98;100188.75;10301666;28;20054;-65
2023/12/14 11:41:40;;;;;;;2.55;2.35;;;;;;;9.94;96.68;100186.06;10316701;28;20109;-63
2023/12/14 11:46:42;;;;;;;3.92;1.88;;;;;;;10.04;96.17;100189.69;10277072;28;20057;-63
2023/12/14 11:51:46;;;;;;;2.50;2.30;;;;;;;10.01;94.96;100198.78;10301056;28;20141;-65
2023/12/14 11:56:51;;;;;;;2.28;1.70;;;;;;;10.10;94.63;100199.84;10296881;28;20109;-68
2023/12/14 12:01:57;;;;;;;3.45;3.15;;;;;;;10.11;94.95;100212.19;10283569;28;20107;-64
2023/12/14 12:07:08;;;;;;;2.05;1.85;;;;;;;10.17;94.39;100203.72;10297151;28;20052;-64
2023/12/14 12:12:11;;;;;;;1.42;1.08;;;;;;;9.94;92.18;100197.56;10296342;28;20051;-64
2023/12/14 12:17:14;;;;;;;1.52;1.10;;;;;;;10.00;93.97;100206.88;10296587;28;20112;-65
2023/12/14 12:22:17;;;;;;;2.55;1.70;;;;;;;10.10;92.07;100207.81;10298777;28;20134;-63
2023/12/14 12:27:18;;;;;;;2.90;2.33;;;;;;;10.12;92.64;100219.22;10295547;28;20057;-63
2023/12/14 12:32:20;;;;;;;2.15;1.33;;;;;;;9.41;90.80;100200.75;10292739;28;20519;-64
2023/12/14 12:37:22;;;;;;;3.05;1.70;;;;;;;9.48;90.75;100228.56;10296868;28;20057;-64
2023/12/14 12:42:25;;;;;;;3.15;1.95;;;;;;;9.51;91.70;100227.47;10294123;28;20046;-63
2023/12/14 12:47:27;;;;;;;2.35;2.15;;;;;;;9.43;90.96;100230.72;10295314;28;20053;-64
2023/12/14 12:52:29;;;;;;;2.25;1.80;;;;;;;9.42;91.03;100234.34;10292389;28;20366;-63
2023/12/14 12:57:33;;;;;;;2.38;2.10;;;;;;;9.58;88.99;100246.44;10301269;28;20057;-65
2023/12/14 13:02:37;;;;;;;2.20;1.77;;;;;;;9.37;89.17;100247.97;10302776;28;20062;-63
2023/12/14 13:07:41;;;;;;;1.98;1.75;;;;;;;9.67;91.22;100253.75;10291444;28;20046;-64
2023/12/14 13:12:43;;;;;;;1.63;1.48;;;;;;;9.95;88.97;100256.91;10292495;28;20058;-64
2023/12/14 13:17:44;;;;;;;2.30;1.30;;;;;;;10.01;87.58;100265.28;10280965;28;20126;-64
2023/12/14 13:22:46;;;;;;;3.10;1.83;;;;;;;9.97;87.74;100271.78;10301793;28;20054;-64
2023/12/14 13:27:48;;;;;;;2.20;1.40;;;;;;;9.96;88.45;100280.72;10295819;28;20061;-64
2023/12/14 13:32:49;;;;;;;3.22;2.92;;;;;;;9.96;86.45;100279.88;10296531;28;20137;-62
2023/12/14 13:37:51;;;;;;;1.75;1.40;;;;;;;9.97;87.00;100300.16;10289261;28;20134;-62
2023/12/14 13:42:53;;;;;;;2.80;2.17;;;;;;;9.69;87.81;100268.59;10296880;28;20073;-63
2023/12/14 13:48:07;;;;;;;2.08;1.88;;;;;;;9.93;87.09;100290.75;10285664;28;20131;-63
2023/12/14 13:53:09;;;;;;;1.60;0.85;;;;;;;9.88;86.04;100321.19;10296652;28;20050;-64
2023/12/14 13:58:11;;;;;;;1.23;0.80;;;;;;;9.55;86.55;100330.75;10306606;28;20058;-63
2023/12/14 14:03:13;;;;;;;2.65;1.02;;;;;;;9.66;89.74;100339.75;10301176;28;20057;-66
2023/12/14 14:08:14;;;;;;;1.58;0.95;;;;;;;9.83;88.04;100355.28;10299404;28;20057;-63
2023/12/14 14:13:18;;;;;;;1.70;1.40;;;;;;;9.95;87.85;100369.44;10283558;28;20681;-64
2023/12/14 14:18:20;;;;;;;1.92;1.48;;;;;;;9.93;86.22;100376.69;10285209;28;20149;-62
2023/12/14 14:23:22;;;;;;;2.00;1.17;;;;;;;9.76;86.93;100396.56;10296484;28;20376;-63
2023/12/14 14:28:24;;;;;;;1.40;1.17;;;;;;;9.37;86.18;100395.91;10297228;28;20072;-62
2023/12/14 14:33:26;;;;;;;1.30;1.10;;;;;;;9.55;88.36;100412.31;10289653;28;20046;-66
2023/12/14 14:38:29;;;;;;;2.55;1.80;;;;;;;9.61;87.08;100430.47;10300239;28;20120;-64
2023/12/14 14:43:30;;;;;;;1.98;1.55;;;;;;;9.70;86.91;100442.22;10289375;28;20126;-66
2023/12/14 14:48:31;;;;;;;1.75;1.50;;;;;;;9.78;86.58;100437.16;10299351;28;20074;-67
2023/12/14 14:53:33;;;;;;;2.08;1.85;;;;;;;9.61;86.71;100448.19;10297318;28;20716;-63
2023/12/14 14:58:34;;;;;;;3.63;2.67;;;;;;;9.45;86.80;100445.81;10296105;28;20138;-64
2023/12/14 15:03:36;;;;;;;3.40;2.60;;;;;;;9.63;85.70;100470.22;10293210;28;20046;-66
2023/12/14 15:08:40;;;;;;;3.03;2.47;;;;;;;8.98;85.90;100472.19;10301713;28;20536;-66
2023/12/14 15:13:41;;;;;;;3.17;2.47;;;;;;;9.17;86.88;100488.50;10297748;28;20468;-66
2023/12/14 15:18:43;;;;;;;3.33;2.60;;;;;;;9.43;86.60;100496.41;10296364;28;20619;-64
2023/12/14 15:23:46;;;;;;;3.38;2.50;;;;;;;9.33;84.96;100511.31;10298364;28;20155;-64
2023/12/14 15:28:48;;;;;;;4.15;3.42;;;;;;;9.30;86.37;100524.81;10294774;28;20508;-64
2023/12/14 15:33:50;;;;;;;4.32;3.47;;;;;;;9.42;86.57;100537.22;10301913;28;20074;-64
2023/12/14 15:38:52;;;;;;;3.55;3.17;;;;;;;9.14;86.51;100544.50;10293850;28;20528;-65
2023/12/14 15:43:54;;;;;;;3.20;2.70;;;;;;;9.03;86.84;100557.66;10303219;28;20121;-65
2023/12/14 15:48:57;;;;;;;2.85;2.60;;;;;;;8.70;86.33;100568.78;10296739;28;20058;-65
2023/12/14 15:53:59;;;;;;;3.10;2.38;;;;;;;8.34;90.14;100571.09;10290136;28;20058;-66
2023/12/14 15:59:01;;;;;;;3.17;2.15;;;;;;;8.55;91.99;100590.09;10303545;28;20157;-66
2023/12/14 16:04:02;;;;;;;3.15;2.35;;;;;;;8.94;91.58;100600.78;10302908;28;20177;-66
2023/12/14 16:09:04;;;;;;;3.38;2.38;;;;;;;8.87;88.96;100605.63;10292626;28;20531;-65
2023/12/14 16:14:06;;;;;;;3.22;2.60;;;;;;;8.70;91.79;100603.28;10298103;28;20746;-69
2023/12/14 16:19:08;;;;;;;5.65;4.80;;;;;;;8.78;92.79;100617.75;10282939;28;20054;-67
2023/12/14 16:24:12;;;;;;;5.60;4.97;;;;;;;8.68;90.27;100627.28;10303189;28;20427;-66
2023/12/14 16:29:14;;;;;;;4.18;3.67;;;;;;;8.78;91.09;100628.38;10291282;28;20324;-67
2023/12/14 16:34:17;;;;;;;3.45;2.85;;;;;;;8.97;89.59;100651.84;10295848;28;20318;-66
2023/12/14 16:39:19;;;;;;;3.60;3.08;;;;;;;9.05;88.12;100645.19;10305173;28;20058;-65
2023/12/14 16:44:23;;;;;;;3.03;2.47;;;;;;;9.03;88.06;100647.94;10291989;28;20075;-67
2023/12/14 16:49:27;;;;;;;3.83;3.07;;;;;;;9.16;87.88;100659.44;10302106;28;20055;-67
2023/12/14 16:54:29;;;;;;;4.85;3.05;;;;;;;9.07;83.88;100668.03;10294606;28;20116;-68
2023/12/14 16:59:31;;;;;;;3.28;2.88;;;;;;;9.09;85.02;100684.72;10299257;28;20062;-67
2023/12/14 17:04:32;;;;;;;3.63;2.70;;;;;;;8.93;87.21;100698.19;10306757;28;20611;-66
2023/12/14 17:09:34;;;;;;;5.68;3.88;;;;;;;9.00;88.04;100695.94;10294585;28;20065;-65
2023/12/14 17:14:35;;;;;;;4.68;3.90;;;;;;;9.09;85.81;100710.44;10287403;28;20050;-63
2023/12/14 17:19:37;;;;;;;3.40;2.90;;;;;;;8.88;86.21;100702.94;10273074;28;20052;-64
2023/12/14 17:24:39;;;;;;;2.80;1.88;;;;;;;8.58;83.29;100724.38;10281391;28;20144;-63
2023/12/14 17:29:41;;;;;;;2.28;1.90;;;;;;;8.32;85.46;100726.88;10290316;28;20469;-65
2023/12/14 17:34:43;;;;;;;3.17;2.35;;;;;;;8.53;85.06;100743.25;10291213;28;20180;-62
2023/12/14 17:39:44;;;;;;;3.20;2.90;;;;;;;8.73;84.53;100752.56;10283697;28;20087;-65
2023/12/14 17:44:47;;;;;;;3.28;2.88;;;;;;;8.85;83.98;100767.69;10306917;28;20215;-64
2023/12/14 17:49:48;;;;;;;4.32;2.05;;;;;;;8.87;83.39;100772.06;10294011;28;20324;-63
2023/12/14 17:54:50;;;;;;;2.75;2.42;;;;;;;8.65;83.29;100784.91;10278357;28;20144;-64
2023/12/14 17:59:53;;;;;;;4.20;3.30;;;;;;;8.02;84.53;100804.72;10293676;28;20082;-65
2023/12/14 18:04:55;;;;;;;3.38;2.58;;;;;;;8.15;86.63;100799.50;10303254;28;20117;-64
2023/12/14 18:09:57;;;;;;;4.10;2.65;;;;;;;8.31;85.61;100807.38;10256478;28;20054;-65
2023/12/14 18:14:58;;;;;;;3.67;3.20;;;;;;;7.92;84.35;100816.84;10283134;28;20058;-64
2023/12/14 18:20:00;;;;;;;4.72;3.95;;;;;;;7.94;86.43;100833.47;10286535;28;20087;-64
2023/12/14 18:25:03;;;;;;;5.43;4.20;;;;;;;8.26;84.59;100825.41;10297698;28;20660;-63
2023/12/14 18:30:08;;;;;;;5.70;4.75;;;;;;;7.89;84.16;100840.88;10285198;28;20057;-65
2023/12/14 18:35:12;;;;;;;6.13;5.22;;;;;;;7.68;83.93;100833.25;10298928;28;20042;-66
2023/12/14 18:40:17;;;;;;;8.18;4.97;;;;;;;7.63;83.14;100840.63;10261279;28;20057;-66
2023/12/14 18:45:19;;;;;;;7.15;5.65;;;;;;;7.49;83.51;100864.41;10305967;28;20051;-65
2023/12/14 18:50:21;;;;;;;8.43;6.10;;;;;;;7.34;85.62;100872.31;10291131;28;20053;-64
2023/12/14 18:55:23;;;;;;;7.13;5.25;;;;;;;7.66;85.00;100890.78;10314257;28;20207;-64
2023/12/14 19:00:25;;;;;;;8.60;7.28;;;;;;;7.77;86.10;100898.97;10306771;28;20149;-66
2023/12/14 19:05:26;;;;;;;5.78;4.60;;;;;;;8.09;86.06;100911.25;10304952;28;20053;-65
2023/12/14 19:10:28;;;;;;;5.47;4.45;;;;;;;8.23;84.73;100913.09;10267420;28;20171;-64
2023/12/14 19:15:30;;;;;;;7.97;5.38;;;;;;;8.32;85.19;100917.84;10308341;28;20054;-66
2023/12/14 19:20:32;;;;;;;5.60;4.63;;;;;;;8.36;85.34;100930.00;10290820;28;20140;-64
2023/12/14 19:25:34;;;;;;;5.55;4.70;;;;;;;8.46;85.16;100940.91;10298448;28;20054;-65
2023/12/14 19:30:35;;;;;;;7.18;5.43;;;;;;;8.45;84.90;100953.34;10300215;28;20982;-63
2023/12/14 19:35:38;;;;;;;7.55;5.13;;;;;;;8.45;85.09;100961.31;10274214;28;20069;-66
2023/12/14 19:40:40;;;;;;;6.68;5.15;;;;;;;8.45;86.28;100961.31;10300226;28;20101;-64
2023/12/14 19:45:41;;;;;;;6.47;5.57;;;;;;;8.47;86.41;100970.00;10297466;28;20651;-65
2023/12/14 19:50:44;;;;;;;5.82;4.82;;;;;;;8.45;85.93;100971.91;10292644;28;20073;-64
2023/12/14 19:55:47;;;;;;;8.48;6.15;;;;;;;8.30;86.30;100973.66;10302983;28;20046;-67
2023/12/14 20:00:48;;;;;;;6.35;5.40;;;;;;;8.34;86.42;100990.22;10301766;28;20053;-65
2023/12/14 20:05:50;;;;;;;6.90;5.68;;;;;;;8.35;86.63;100991.94;10301627;28;20057;-63
2023/12/14 20:10:53;;;;;;;7.38;5.60;;;;;;;8.37;86.33;101000.66;10288864;28;20185;-64
2023/12/14 20:15:55;;;;;;;8.75;6.05;;;;;;;8.37;86.70;101021.03;10288340;28;20121;-65
2023/12/14 20:20:57;;;;;;;8.10;7.18;;;;;;;8.31;87.16;101012.47;10293033;28;20047;-66
2023/12/14 20:25:58;;;;;;;10.50;7.35;;;;;;;8.36;86.71;101025.50;10300253;28;20796;-66
2023/12/14 20:31:00;;;;;;;10.35;9.25;;;;;;;8.38;86.66;101031.56;10289306;28;20056;-67
2023/12/14 20:36:04;;;;;;;11.27;7.07;;;;;;;8.37;86.47;101045.75;10302381;28;20054;-65
2023/12/14 20:41:07;;;;;;;8.23;6.78;;;;;;;8.31;86.21;101032.84;10304990;28;20062;-69
2023/12/14 20:46:19;;;;;;;8.27;5.95;;;;;;;8.37;85.72;101048.41;10261954;28;20141;-66
2023/12/14 20:51:22;;;;;;;8.27;6.63;;;;;;;8.35;85.95;101060.91;10273539;28;20541;-65
2023/12/14 20:56:24;;;;;;;10.98;7.57;;;;;;;8.35;86.12;101065.34;10291526;28;20108;-66
2023/12/14 21:01:31;;;;;;;9.85;7.78;;;;;;;8.35;85.55;101068.00;10290968;28;20469;-66
2023/12/14 21:06:33;;;;;;;12.98;9.68;;;;;;;8.37;84.70;101080.25;10296895;28;20102;-66
2023/12/14 21:11:35;;;;;;;7.68;5.95;;;;;;;8.39;84.85;101088.09;10280630;28;20148;-62
2023/12/14 21:16:37;;;;;;;7.13;6.05;;;;;;;8.33;84.12;101086.66;10279997;28;20057;-63
2023/12/14 21:21:39;;;;;;;6.35;5.57;;;;;;;8.39;83.11;101098.72;10292753;28;20133;-65
2023/12/14 21:27:43;;;;;;;7.38;5.38;;;;;;;8.27;81.46;101100.28;10286031;28;20510;-65
2023/12/14 21:32:05;;;;;;;7.28;6.13;;;;;;;8.27;82.94;101098.50;10296041;28;20050;-64
2023/12/14 21:37:06;;;;;;;5.97;4.68;;;;;;;8.26;82.06;101098.59;10274818;28;20042;-66
2023/12/14 21:42:07;;;;;;;5.90;4.57;;;;;;;8.23;81.57;101106.72;10296778;28;20205;-65
2023/12/14 21:47:11;;;;;;;5.53;4.80;;;;;;;8.29;83.05;101114.31;10295552;28;20138;-64
2023/12/14 21:52:13;;;;;;;6.30;4.80;;;;;;;8.28;80.73;101107.31;10274887;28;20129;-66
2023/12/14 21:57:14;;;;;;;5.80;4.95;;;;;;;8.31;82.67;101117.72;10288966;28;20112;-65
2023/12/14 22:02:16;;;;;;;6.45;5.50;;;;;;;8.36;82.95;101120.13;10288609;28;20051;-65
2023/12/14 22:07:17;;;;;;;8.75;5.32;;;;;;;8.33;81.86;101123.78;10290514;28;20056;-64
2023/12/14 22:12:21;;;;;;;7.37;5.77;;;;;;;8.35;83.01;101134.31;10274055;28;20755;-64
2023/12/14 22:17:23;;;;;;;7.47;5.95;;;;;;;8.31;84.26;101128.34;10302072;28;20614;-63
2023/12/14 22:22:24;;;;;;;7.97;6.45;;;;;;;8.37;82.09;101156.34;10297502;28;20567;-65
2023/12/14 22:27:25;;;;;;;8.52;6.47;;;;;;;8.32;83.27;101165.41;10293086;28;20067;-65
2023/12/14 22:32:27;;;;;;;8.55;6.63;;;;;;;8.33;83.00;101168.91;10297310;28;20058;-64
2023/12/14 22:37:30;;;;;;;9.07;7.30;;;;;;;8.37;84.77;101186.34;10302920;28;20090;-65
2023/12/14 22:42:31;;;;;;;9.93;8.30;;;;;;;8.40;85.19;101186.19;10298033;28;20049;-64
2023/12/14 22:47:32;;;;;;;10.75;9.25;;;;;;;8.36;82.74;101191.75;10304854;28;20050;-63
2023/12/14 22:52:35;;;;;;;12.82;8.85;;;;;;;8.19;83.85;101198.00;10300040;28;20672;-63
2023/12/14 22:57:43;;;;;;;11.60;8.50;;;;;;;8.29;85.35;101209.81;10298185;28;20094;-65
2023/12/14 23:02:44;;;;;;;10.95;8.95;;;;;;;8.24;83.39;101214.50;10305826;28;20124;-63
2023/12/14 23:07:47;;;;;;;11.45;10.15;;;;;;;8.16;84.54;101219.41;10302357;28;20508;-64
2023/12/14 23:12:48;;;;;;;11.80;9.48;;;;;;;8.19;84.85;101230.69;10306413;28;20066;-64
2023/12/14 23:17:53;;;;;;;12.13;9.48;;;;;;;8.22;84.01;101246.44;10295880;28;20073;-64